To NAV CANADA Home Page Login to a new session Search on AWWS site Feedback and Comments Disclaimer Vers la page française équivalente Tips FAQ What's new on the site To the Forecasts and Observations / NOTAM section To "File a Flight Plan" website Publications and other links Update of the User's profile FIC Telephone Numbers My Weather Data Folder Route Weather Data Regional Weather Data Local Weather Data To the Forecasts and Observations / NOTAM section
Request Generated 05/06/2016 at 22:35:46 UTC . Weather information available at that time is displayed.

METAR/TAF

If you find any discrepancies between the coded METAR/TAF and the plain language METAR/TAF please use the coded METAR/TAF. LWIS bulletins are not decoded in plain language.

VANCOUVER/VANCOUVER INTL/BC    

METAR CYVR 062200Z 29014G19KT 30SM FEW220 19/11 A3004 RMK CI1 SLP175 DENSITY ALT 200FT=
METAR
LOCATION
CYVR - VANCOUVER/VANCOUVER INTL/BC
DATE - TIME
06 MAY 2016 - 2200 UTC
WIND
290 TRUE @ 14  KNOTS
GUSTS
19 KNOTS
VISIBILITY
30 STAT.  MILES
RUNWAY VISUAL RANGE
WEATHER
CLOUDINESS
FEW CLOUDS (1/8 - 2/8) 22000  FT
TEMP / DEWPOINT
19 C / 11 C
ALTIMETER
30.04 IN HG
RECENT WEATHER
WIND SHEAR

METAR CYVR 062100Z 30018KT 30SM FEW220 18/10 A3006 RMK CI1 PRESFR SLP179 DENSITY ALT 200FT=
METAR
LOCATION
CYVR - VANCOUVER/VANCOUVER INTL/BC
DATE - TIME
06 MAY 2016 - 2100 UTC
WIND
300 TRUE @ 18  KNOTS
VISIBILITY
30 STAT.  MILES
RUNWAY VISUAL RANGE
WEATHER
CLOUDINESS
FEW CLOUDS (1/8 - 2/8) 22000  FT
TEMP / DEWPOINT
18 C / 10 C
ALTIMETER
30.06 IN HG
RECENT WEATHER
WIND SHEAR

METAR CYVR 062000Z 29020KT 30SM FEW220 17/11 A3008 RMK CI1 SLP186=
METAR
LOCATION
CYVR - VANCOUVER/VANCOUVER INTL/BC
DATE - TIME
06 MAY 2016 - 2000 UTC
WIND
290 TRUE @ 20  KNOTS
VISIBILITY
30 STAT.  MILES
RUNWAY VISUAL RANGE
WEATHER
CLOUDINESS
FEW CLOUDS (1/8 - 2/8) 22000  FT
TEMP / DEWPOINT
17 C / 11 C
ALTIMETER
30.08 IN HG
RECENT WEATHER
WIND SHEAR

TAF CYVR 062038Z 0621/0724 29018KT P6SM SKC BECMG 0702/0704 29012KT RMK NXT FCST BY 070000Z=
TAF
LOCATION

CYVR - VANCOUVER/VANCOUVER INTL/BC
VALIDITY [UTC]
06 MAY - 2038 to
08 MAY - 0000
 
TIMES
[UTC]
WIND
[DEGREES TRUE]
VISIBILITY
[STAT. MILES]
WEATHER
CLOUDINESS
[FEET AGL]
 
06 MAY - 2100 to
08 MAY - 0000
290 @ 18 KNOTS
6+
NIL
CLEAR SKY
BECOMING
07 MAY - 0200 to
07 MAY - 0400
290 @ 12 KNOTS
 
 
 
REMARKS
THE NEXT FORECAST WILL BE ISSUED BY 0000 UTC ON DAY 07


Your time UTC time
Weather data provided by Environment Canada and NAV CANADA